sensor_id;sensor_type;location;lat;lon;timestamp;temperature;humidity
52656;SHT85;35474;51.032;6.998;2024-03-08T00:01:16;3.39;69.60
52656;SHT85;35474;51.032;6.998;2024-03-08T00:03:42;3.30;69.96
52656;SHT85;35474;51.032;6.998;2024-03-08T00:06:09;3.33;70.24
52656;SHT85;35474;51.032;6.998;2024-03-08T00:08:35;3.22;70.24
52656;SHT85;35474;51.032;6.998;2024-03-08T00:11:02;3.25;70.73
52656;SHT85;35474;51.032;6.998;2024-03-08T00:13:29;3.38;69.97
52656;SHT85;35474;51.032;6.998;2024-03-08T00:15:55;3.46;70.08
52656;SHT85;35474;51.032;6.998;2024-03-08T00:18:23;3.22;70.26
52656;SHT85;35474;51.032;6.998;2024-03-08T00:20:50;3.11;70.71
52656;SHT85;35474;51.032;6.998;2024-03-08T00:23:17;3.15;70.82
52656;SHT85;35474;51.032;6.998;2024-03-08T00:25:43;3.04;71.27
52656;SHT85;35474;51.032;6.998;2024-03-08T00:28:10;3.16;70.93
52656;SHT85;35474;51.032;6.998;2024-03-08T00:30:39;3.02;71.21
52656;SHT85;35474;51.032;6.998;2024-03-08T00:33:06;2.95;71.46
52656;SHT85;35474;51.032;6.998;2024-03-08T00:35:32;2.98;71.29
52656;SHT85;35474;51.032;6.998;2024-03-08T00:37:59;3.02;71.25
52656;SHT85;35474;51.032;6.998;2024-03-08T00:40:25;2.98;71.25
52656;SHT85;35474;51.032;6.998;2024-03-08T00:42:55;2.94;71.42
52656;SHT85;35474;51.032;6.998;2024-03-08T00:45:21;2.87;71.49
52656;SHT85;35474;51.032;6.998;2024-03-08T00:47:50;2.85;71.86
52656;SHT85;35474;51.032;6.998;2024-03-08T00:50:16;2.84;71.84
52656;SHT85;35474;51.032;6.998;2024-03-08T00:52:44;2.88;71.68
52656;SHT85;35474;51.032;6.998;2024-03-08T00:55:10;2.91;71.50
52656;SHT85;35474;51.032;6.998;2024-03-08T01:00:34;2.91;71.36
52656;SHT85;35474;51.032;6.998;2024-03-08T01:03:01;2.98;71.10
52656;SHT85;35474;51.032;6.998;2024-03-08T01:05:29;2.88;71.08
52656;SHT85;35474;51.032;6.998;2024-03-08T01:07:56;2.90;71.06
52656;SHT85;35474;51.032;6.998;2024-03-08T01:10:22;2.91;71.46
52656;SHT85;35474;51.032;6.998;2024-03-08T01:12:49;3.16;70.89
52656;SHT85;35474;51.032;6.998;2024-03-08T01:15:16;3.05;70.59
52656;SHT85;35474;51.032;6.998;2024-03-08T01:17:43;3.05;70.71
52656;SHT85;35474;51.032;6.998;2024-03-08T01:20:11;2.99;70.84
52656;SHT85;35474;51.032;6.998;2024-03-08T01:22:40;3.01;70.86
52656;SHT85;35474;51.032;6.998;2024-03-08T01:25:07;3.05;70.74
52656;SHT85;35474;51.032;6.998;2024-03-08T01:27:34;3.05;71.10
52656;SHT85;35474;51.032;6.998;2024-03-08T01:30:03;3.11;70.77
52656;SHT85;35474;51.032;6.998;2024-03-08T01:32:31;3.04;71.03
52656;SHT85;35474;51.032;6.998;2024-03-08T01:34:57;3.16;70.51
52656;SHT85;35474;51.032;6.998;2024-03-08T01:37:24;3.13;70.32
52656;SHT85;35474;51.032;6.998;2024-03-08T01:39:50;3.01;70.73
52656;SHT85;35474;51.032;6.998;2024-03-08T01:42:17;3.11;70.78
52656;SHT85;35474;51.032;6.998;2024-03-08T01:44:44;2.94;71.00
52656;SHT85;35474;51.032;6.998;2024-03-08T01:47:10;2.87;71.33
52656;SHT85;35474;51.032;6.998;2024-03-08T01:49:37;2.83;71.51
52656;SHT85;35474;51.032;6.998;2024-03-08T01:52:04;2.90;71.78
52656;SHT85;35474;51.032;6.998;2024-03-08T01:54:31;2.99;71.11
52656;SHT85;35474;51.032;6.998;2024-03-08T01:56:57;2.88;71.68
52656;SHT85;35474;51.032;6.998;2024-03-08T01:59:25;2.99;71.40
52656;SHT85;35474;51.032;6.998;2024-03-08T02:01:54;2.90;71.46
52656;SHT85;35474;51.032;6.998;2024-03-08T02:04:21;2.77;72.04
52656;SHT85;35474;51.032;6.998;2024-03-08T02:06:48;2.83;72.03
52656;SHT85;35474;51.032;6.998;2024-03-08T02:09:15;2.80;72.36
52656;SHT85;35474;51.032;6.998;2024-03-08T02:11:42;2.81;72.11
52656;SHT85;35474;51.032;6.998;2024-03-08T02:14:09;2.90;71.77
52656;SHT85;35474;51.032;6.998;2024-03-08T02:16:37;2.95;71.42
52656;SHT85;35474;51.032;6.998;2024-03-08T02:19:04;2.99;71.45
52656;SHT85;35474;51.032;6.998;2024-03-08T02:21:30;2.98;71.22
52656;SHT85;35474;51.032;6.998;2024-03-08T02:23:57;3.11;71.16
52656;SHT85;35474;51.032;6.998;2024-03-08T02:26:24;3.07;71.08
52656;SHT85;35474;51.032;6.998;2024-03-08T02:28:50;3.11;70.81
52656;SHT85;35474;51.032;6.998;2024-03-08T02:31:17;3.05;70.73
52656;SHT85;35474;51.032;6.998;2024-03-08T02:33:43;3.05;70.91
52656;SHT85;35474;51.032;6.998;2024-03-08T02:36:10;2.92;71.01
52656;SHT85;35474;51.032;6.998;2024-03-08T02:38:38;2.80;71.69
52656;SHT85;35474;51.032;6.998;2024-03-08T02:41:04;2.87;71.61
52656;SHT85;35474;51.032;6.998;2024-03-08T02:43:31;3.02;70.92
52656;SHT85;35474;51.032;6.998;2024-03-08T02:45:57;2.87;71.42
52656;SHT85;35474;51.032;6.998;2024-03-08T02:48:24;2.99;70.99
52656;SHT85;35474;51.032;6.998;2024-03-08T02:50:51;2.99;70.68
52656;SHT85;35474;51.032;6.998;2024-03-08T02:53:18;3.07;70.74
52656;SHT85;35474;51.032;6.998;2024-03-08T02:55:48;2.85;71.25
52656;SHT85;35474;51.032;6.998;2024-03-08T02:58:14;2.90;71.20
52656;SHT85;35474;51.032;6.998;2024-03-08T03:00:41;2.85;71.35
52656;SHT85;35474;51.032;6.998;2024-03-08T03:03:10;2.87;71.69
52656;SHT85;35474;51.032;6.998;2024-03-08T03:05:37;2.76;71.41
52656;SHT85;35474;51.032;6.998;2024-03-08T03:08:04;2.78;71.79
52656;SHT85;35474;51.032;6.998;2024-03-08T03:10:36;2.84;71.52
52656;SHT85;35474;51.032;6.998;2024-03-08T03:13:03;2.81;71.49
52656;SHT85;35474;51.032;6.998;2024-03-08T03:15:31;2.88;70.48
52656;SHT85;35474;51.032;6.998;2024-03-08T03:17:57;2.76;70.92
52656;SHT85;35474;51.032;6.998;2024-03-08T03:20:24;2.88;70.97
52656;SHT85;35474;51.032;6.998;2024-03-08T03:22:59;2.88;71.00
52656;SHT85;35474;51.032;6.998;2024-03-08T03:25:28;2.71;70.93
52656;SHT85;35474;51.032;6.998;2024-03-08T03:28:02;2.74;71.27
52656;SHT85;35474;51.032;6.998;2024-03-08T03:30:29;2.61;71.52
52656;SHT85;35474;51.032;6.998;2024-03-08T03:33:02;2.62;71.72
52656;SHT85;35474;51.032;6.998;2024-03-08T03:35:34;2.64;71.60
52656;SHT85;35474;51.032;6.998;2024-03-08T03:38:02;2.61;71.96
52656;SHT85;35474;51.032;6.998;2024-03-08T03:40:37;2.57;72.25
52656;SHT85;35474;51.032;6.998;2024-03-08T03:43:05;2.62;72.23
52656;SHT85;35474;51.032;6.998;2024-03-08T03:45:32;2.61;72.28
52656;SHT85;35474;51.032;6.998;2024-03-08T03:48:03;2.57;72.31
52656;SHT85;35474;51.032;6.998;2024-03-08T03:50:33;2.74;71.83
52656;SHT85;35474;51.032;6.998;2024-03-08T03:53:03;2.85;71.56
52656;SHT85;35474;51.032;6.998;2024-03-08T03:55:30;2.71;71.45
52656;SHT85;35474;51.032;6.998;2024-03-08T03:57:57;2.91;71.05
52656;SHT85;35474;51.032;6.998;2024-03-08T04:00:25;3.04;70.68
52656;SHT85;35474;51.032;6.998;2024-03-08T04:02:53;2.95;70.97
52656;SHT85;35474;51.032;6.998;2024-03-08T04:05:21;2.92;71.02
52656;SHT85;35474;51.032;6.998;2024-03-08T04:07:47;2.97;70.99
52656;SHT85;35474;51.032;6.998;2024-03-08T04:10:14;2.80;71.33
52656;SHT85;35474;51.032;6.998;2024-03-08T04:12:40;2.91;71.15
52656;SHT85;35474;51.032;6.998;2024-03-08T04:15:07;2.83;71.15
52656;SHT85;35474;51.032;6.998;2024-03-08T04:17:34;2.67;71.78
52656;SHT85;35474;51.032;6.998;2024-03-08T04:20:04;2.74;71.74
52656;SHT85;35474;51.032;6.998;2024-03-08T04:22:38;2.81;71.49
52656;SHT85;35474;51.032;6.998;2024-03-08T04:25:09;2.76;71.76
52656;SHT85;35474;51.032;6.998;2024-03-08T04:27:36;2.70;71.87
52656;SHT85;35474;51.032;6.998;2024-03-08T04:30:02;2.74;71.85
52656;SHT85;35474;51.032;6.998;2024-03-08T04:32:30;2.76;72.04
52656;SHT85;35474;51.032;6.998;2024-03-08T04:34:59;2.78;71.68
52656;SHT85;35474;51.032;6.998;2024-03-08T04:37:30;2.64;71.91
52656;SHT85;35474;51.032;6.998;2024-03-08T04:39:56;2.67;72.28
52656;SHT85;35474;51.032;6.998;2024-03-08T04:42:23;2.57;72.24
52656;SHT85;35474;51.032;6.998;2024-03-08T04:44:51;2.81;72.06
52656;SHT85;35474;51.032;6.998;2024-03-08T04:47:19;2.74;71.89
52656;SHT85;35474;51.032;6.998;2024-03-08T04:49:46;2.68;71.94
52656;SHT85;35474;51.032;6.998;2024-03-08T04:52:12;2.67;72.42
52656;SHT85;35474;51.032;6.998;2024-03-08T04:54:39;2.70;72.20
52656;SHT85;35474;51.032;6.998;2024-03-08T04:57:05;2.68;72.42
52656;SHT85;35474;51.032;6.998;2024-03-08T04:59:35;2.64;72.51
52656;SHT85;35474;51.032;6.998;2024-03-08T05:02:02;2.83;72.38
52656;SHT85;35474;51.032;6.998;2024-03-08T05:04:29;2.91;71.79
52656;SHT85;35474;51.032;6.998;2024-03-08T05:06:56;2.91;71.58
52656;SHT85;35474;51.032;6.998;2024-03-08T05:09:22;2.97;71.28
52656;SHT85;35474;51.032;6.998;2024-03-08T05:11:50;2.94;71.42
52656;SHT85;35474;51.032;6.998;2024-03-08T05:14:16;3.02;71.34
52656;SHT85;35474;51.032;6.998;2024-03-08T05:16:44;2.87;71.94
52656;SHT85;35474;51.032;6.998;2024-03-08T05:19:15;2.80;71.96
52656;SHT85;35474;51.032;6.998;2024-03-08T05:21:45;2.77;72.42
52656;SHT85;35474;51.032;6.998;2024-03-08T05:24:13;2.88;71.92
52656;SHT85;35474;51.032;6.998;2024-03-08T05:26:44;2.94;72.31
52656;SHT85;35474;51.032;6.998;2024-03-08T05:29:12;2.83;72.08
52656;SHT85;35474;51.032;6.998;2024-03-08T05:31:45;2.88;72.19
52656;SHT85;35474;51.032;6.998;2024-03-08T05:34:16;2.88;72.01
52656;SHT85;35474;51.032;6.998;2024-03-08T05:36:43;2.88;72.07
52656;SHT85;35474;51.032;6.998;2024-03-08T05:39:11;3.01;71.20
52656;SHT85;35474;51.032;6.998;2024-03-08T05:41:39;2.90;71.98
52656;SHT85;35474;51.032;6.998;2024-03-08T05:44:07;2.80;72.06
52656;SHT85;35474;51.032;6.998;2024-03-08T05:46:34;2.81;72.21
52656;SHT85;35474;51.032;6.998;2024-03-08T05:49:04;2.85;72.45
52656;SHT85;35474;51.032;6.998;2024-03-08T05:51:37;2.87;72.20
52656;SHT85;35474;51.032;6.998;2024-03-08T05:54:09;2.78;72.52
52656;SHT85;35474;51.032;6.998;2024-03-08T05:56:38;2.83;72.25
52656;SHT85;35474;51.032;6.998;2024-03-08T05:59:08;2.84;72.35
52656;SHT85;35474;51.032;6.998;2024-03-08T06:01:36;2.97;72.20
52656;SHT85;35474;51.032;6.998;2024-03-08T06:04:04;2.88;71.94
52656;SHT85;35474;51.032;6.998;2024-03-08T06:06:30;3.01;72.02
52656;SHT85;35474;51.032;6.998;2024-03-08T06:08:57;2.85;72.08
52656;SHT85;35474;51.032;6.998;2024-03-08T06:11:25;2.92;71.93
52656;SHT85;35474;51.032;6.998;2024-03-08T06:13:53;2.81;72.37
52656;SHT85;35474;51.032;6.998;2024-03-08T06:16:26;2.73;72.65
52656;SHT85;35474;51.032;6.998;2024-03-08T06:18:58;2.76;72.88
52656;SHT85;35474;51.032;6.998;2024-03-08T06:21:25;2.85;72.84
52656;SHT85;35474;51.032;6.998;2024-03-08T06:23:53;2.78;72.86
52656;SHT85;35474;51.032;6.998;2024-03-08T06:26:21;2.97;72.07
52656;SHT85;35474;51.032;6.998;2024-03-08T06:28:55;2.95;72.18
52656;SHT85;35474;51.032;6.998;2024-03-08T06:31:22;2.92;72.11
52656;SHT85;35474;51.032;6.998;2024-03-08T06:33:49;2.95;72.18
52656;SHT85;35474;51.032;6.998;2024-03-08T06:36:17;2.88;72.76
52656;SHT85;35474;51.032;6.998;2024-03-08T06:38:48;2.91;72.50
52656;SHT85;35474;51.032;6.998;2024-03-08T06:41:15;2.97;72.37
52656;SHT85;35474;51.032;6.998;2024-03-08T06:43:45;3.12;72.16
52656;SHT85;35474;51.032;6.998;2024-03-08T06:46:14;3.18;72.29
52656;SHT85;35474;51.032;6.998;2024-03-08T06:48:41;3.42;71.43
52656;SHT85;35474;51.032;6.998;2024-03-08T06:51:08;3.60;70.97
52656;SHT85;35474;51.032;6.998;2024-03-08T06:53:34;3.81;70.10
52656;SHT85;35474;51.032;6.998;2024-03-08T06:56:01;3.60;70.47
52656;SHT85;35474;51.032;6.998;2024-03-08T06:58:28;3.57;70.91
52656;SHT85;35474;51.032;6.998;2024-03-08T07:00:55;3.73;71.11
52656;SHT85;35474;51.032;6.998;2024-03-08T07:03:24;4.22;69.53
52656;SHT85;35474;51.032;6.998;2024-03-08T07:05:52;4.60;68.00
52656;SHT85;35474;51.032;6.998;2024-03-08T07:08:19;5.08;67.03
52656;SHT85;35474;51.032;6.998;2024-03-08T07:10:48;5.07;66.60
52656;SHT85;35474;51.032;6.998;2024-03-08T07:13:15;5.00;66.37
52656;SHT85;35474;51.032;6.998;2024-03-08T07:15:43;5.14;66.35
52656;SHT85;35474;51.032;6.998;2024-03-08T07:18:10;4.76;66.56
52656;SHT85;35474;51.032;6.998;2024-03-08T07:20:41;5.25;66.11
52656;SHT85;35474;51.032;6.998;2024-03-08T07:23:09;5.51;65.46
52656;SHT85;35474;51.032;6.998;2024-03-08T07:25:36;5.69;64.78
52656;SHT85;35474;51.032;6.998;2024-03-08T07:28:06;5.63;65.10
52656;SHT85;35474;51.032;6.998;2024-03-08T07:32:37;5.93;64.00
52656;SHT85;35474;51.032;6.998;2024-03-08T07:35:04;5.93;63.88
52656;SHT85;35474;51.032;6.998;2024-03-08T07:37:32;6.35;63.12
52656;SHT85;35474;51.032;6.998;2024-03-08T07:39:58;6.03;63.89
52656;SHT85;35474;51.032;6.998;2024-03-08T07:42:25;6.03;63.37
52656;SHT85;35474;51.032;6.998;2024-03-08T07:44:52;5.86;63.75
52656;SHT85;35474;51.032;6.998;2024-03-08T07:47:19;6.25;63.58
52656;SHT85;35474;51.032;6.998;2024-03-08T07:49:50;6.45;62.51
52656;SHT85;35474;51.032;6.998;2024-03-08T07:52:16;6.27;63.31
52656;SHT85;35474;51.032;6.998;2024-03-08T07:54:44;6.74;61.63
52656;SHT85;35474;51.032;6.998;2024-03-08T07:57:11;6.48;61.93
52656;SHT85;35474;51.032;6.998;2024-03-08T07:59:38;6.91;61.64
52656;SHT85;35474;51.032;6.998;2024-03-08T08:02:05;7.00;61.36
52656;SHT85;35474;51.032;6.998;2024-03-08T08:04:31;7.05;61.17
52656;SHT85;35474;51.032;6.998;2024-03-08T08:06:58;7.10;60.69
52656;SHT85;35474;51.032;6.998;2024-03-08T08:09:24;7.60;59.74
52656;SHT85;35474;51.032;6.998;2024-03-08T08:12:01;7.33;59.54
52656;SHT85;35474;51.032;6.998;2024-03-08T08:14:30;7.55;59.62
52656;SHT85;35474;51.032;6.998;2024-03-08T08:16:57;7.65;59.20
52656;SHT85;35474;51.032;6.998;2024-03-08T08:19:26;8.23;58.35
52656;SHT85;35474;51.032;6.998;2024-03-08T08:21:53;8.09;57.88
52656;SHT85;35474;51.032;6.998;2024-03-08T08:24:20;7.84;58.00
52656;SHT85;35474;51.032;6.998;2024-03-08T08:26:48;8.61;57.03
52656;SHT85;35474;51.032;6.998;2024-03-08T08:29:14;8.56;56.52
52656;SHT85;35474;51.032;6.998;2024-03-08T08:31:41;7.71;57.91
52656;SHT85;35474;51.032;6.998;2024-03-08T08:34:09;8.71;56.53
52656;SHT85;35474;51.032;6.998;2024-03-08T08:36:36;8.47;55.57
52656;SHT85;35474;51.032;6.998;2024-03-08T08:39:03;8.39;56.52
52656;SHT85;35474;51.032;6.998;2024-03-08T08:41:32;8.61;55.80
52656;SHT85;35474;51.032;6.998;2024-03-08T08:43:58;9.31;54.71
52656;SHT85;35474;51.032;6.998;2024-03-08T08:46:40;8.53;55.64
52656;SHT85;35474;51.032;6.998;2024-03-08T08:49:10;8.10;57.07
52656;SHT85;35474;51.032;6.998;2024-03-08T08:51:48;9.07;55.50
52656;SHT85;35474;51.032;6.998;2024-03-08T08:54:18;9.73;53.59
52656;SHT85;35474;51.032;6.998;2024-03-08T08:56:45;9.43;53.55
52656;SHT85;35474;51.032;6.998;2024-03-08T08:59:11;9.46;54.04
52656;SHT85;35474;51.032;6.998;2024-03-08T09:01:43;10.35;52.29
52656;SHT85;35474;51.032;6.998;2024-03-08T09:04:10;10.37;51.62
52656;SHT85;35474;51.032;6.998;2024-03-08T09:06:38;10.28;51.69
52656;SHT85;35474;51.032;6.998;2024-03-08T09:09:09;9.36;54.06
52656;SHT85;35474;51.032;6.998;2024-03-08T09:11:37;10.45;51.77
52656;SHT85;35474;51.032;6.998;2024-03-08T09:14:08;10.29;51.96
52656;SHT85;35474;51.032;6.998;2024-03-08T09:16:35;9.90;51.70
52656;SHT85;35474;51.032;6.998;2024-03-08T09:19:03;9.50;53.01
52656;SHT85;35474;51.032;6.998;2024-03-08T09:21:30;9.25;53.84
52656;SHT85;35474;51.032;6.998;2024-03-08T09:23:57;9.33;54.43
52656;SHT85;35474;51.032;6.998;2024-03-08T09:26:24;9.54;53.45
52656;SHT85;35474;51.032;6.998;2024-03-08T09:28:55;9.77;52.94
52656;SHT85;35474;51.032;6.998;2024-03-08T09:31:22;10.12;51.79
52656;SHT85;35474;51.032;6.998;2024-03-08T09:33:49;10.63;50.58
52656;SHT85;35474;51.032;6.998;2024-03-08T09:36:17;10.28;51.12
52656;SHT85;35474;51.032;6.998;2024-03-08T09:38:45;11.10;49.72
52656;SHT85;35474;51.032;6.998;2024-03-08T09:41:12;10.86;49.75
52656;SHT85;35474;51.032;6.998;2024-03-08T09:43:39;10.55;49.83
52656;SHT85;35474;51.032;6.998;2024-03-08T09:46:05;10.49;50.96
52656;SHT85;35474;51.032;6.998;2024-03-08T09:48:34;11.39;49.48
52656;SHT85;35474;51.032;6.998;2024-03-08T09:51:01;11.57;48.96
52656;SHT85;35474;51.032;6.998;2024-03-08T09:53:28;10.72;50.05
52656;SHT85;35474;51.032;6.998;2024-03-08T09:55:58;10.81;49.57
52656;SHT85;35474;51.032;6.998;2024-03-08T09:58:25;10.42;50.58
52656;SHT85;35474;51.032;6.998;2024-03-08T10:01:01;10.08;51.01
52656;SHT85;35474;51.032;6.998;2024-03-08T10:03:28;11.48;49.05
52656;SHT85;35474;51.032;6.998;2024-03-08T10:05:56;11.52;47.99
52656;SHT85;35474;51.032;6.998;2024-03-08T10:08:30;11.82;47.20
52656;SHT85;35474;51.032;6.998;2024-03-08T10:10:57;10.63;49.16
52656;SHT85;35474;51.032;6.998;2024-03-08T10:13:26;10.72;50.03
52656;SHT85;35474;51.032;6.998;2024-03-08T10:15:54;11.03;49.68
52656;SHT85;35474;51.032;6.998;2024-03-08T10:18:22;11.44;48.61
52656;SHT85;35474;51.032;6.998;2024-03-08T10:21:02;11.89;47.82
52656;SHT85;35474;51.032;6.998;2024-03-08T10:23:36;11.66;46.20
52656;SHT85;35474;51.032;6.998;2024-03-08T10:26:13;11.06;49.75
52656;SHT85;35474;51.032;6.998;2024-03-08T10:28:44;11.59;47.16
52656;SHT85;35474;51.032;6.998;2024-03-08T10:31:16;11.26;47.92
52656;SHT85;35474;51.032;6.998;2024-03-08T10:33:45;12.28;47.10
52656;SHT85;35474;51.032;6.998;2024-03-08T10:36:13;11.79;47.54
52656;SHT85;35474;51.032;6.998;2024-03-08T10:38:41;12.34;46.19
52656;SHT85;35474;51.032;6.998;2024-03-08T10:41:14;11.92;46.80
52656;SHT85;35474;51.032;6.998;2024-03-08T10:44:01;12.40;46.02
52656;SHT85;35474;51.032;6.998;2024-03-08T10:46:45;11.58;47.51
52656;SHT85;35474;51.032;6.998;2024-03-08T10:49:32;11.55;46.14
52656;SHT85;35474;51.032;6.998;2024-03-08T10:52:05;10.84;48.64
52656;SHT85;35474;51.032;6.998;2024-03-08T10:54:36;11.96;47.36
52656;SHT85;35474;51.032;6.998;2024-03-08T10:57:11;12.46;45.13
52656;SHT85;35474;51.032;6.998;2024-03-08T10:59:39;13.43;43.83
52656;SHT85;35474;51.032;6.998;2024-03-08T11:02:06;13.56;42.77
52656;SHT85;35474;51.032;6.998;2024-03-08T11:04:32;12.17;44.35
52656;SHT85;35474;51.032;6.998;2024-03-08T11:07:00;12.55;44.52
52656;SHT85;35474;51.032;6.998;2024-03-08T11:09:37;12.54;44.80
52656;SHT85;35474;51.032;6.998;2024-03-08T11:12:21;12.96;43.24
52656;SHT85;35474;51.032;6.998;2024-03-08T11:14:53;12.68;44.15
52656;SHT85;35474;51.032;6.998;2024-03-08T11:17:40;12.28;44.40
52656;SHT85;35474;51.032;6.998;2024-03-08T11:23:01;12.12;45.48
52656;SHT85;35474;51.032;6.998;2024-03-08T11:25:39;12.76;44.11
52656;SHT85;35474;51.032;6.998;2024-03-08T11:28:16;11.61;45.42
52656;SHT85;35474;51.032;6.998;2024-03-08T11:33:28;12.54;45.50
52656;SHT85;35474;51.032;6.998;2024-03-08T11:38:49;13.50;41.83
52656;SHT85;35474;51.032;6.998;2024-03-08T11:41:19;12.82;43.62
52656;SHT85;35474;51.032;6.998;2024-03-08T11:43:47;12.36;44.00
52656;SHT85;35474;51.032;6.998;2024-03-08T11:46:15;12.30;44.45
52656;SHT85;35474;51.032;6.998;2024-03-08T11:48:43;12.88;43.55
52656;SHT85;35474;51.032;6.998;2024-03-08T11:51:11;13.70;42.86
52656;SHT85;35474;51.032;6.998;2024-03-08T11:53:38;14.63;40.67
52656;SHT85;35474;51.032;6.998;2024-03-08T11:56:08;14.70;40.30
52656;SHT85;35474;51.032;6.998;2024-03-08T11:58:39;13.68;40.78
52656;SHT85;35474;51.032;6.998;2024-03-08T12:01:08;14.18;41.38
52656;SHT85;35474;51.032;6.998;2024-03-08T12:03:39;14.72;40.30
52656;SHT85;35474;51.032;6.998;2024-03-08T12:06:05;14.83;40.14
52656;SHT85;35474;51.032;6.998;2024-03-08T12:08:35;14.74;40.14
52656;SHT85;35474;51.032;6.998;2024-03-08T12:11:05;14.81;40.03
52656;SHT85;35474;51.032;6.998;2024-03-08T12:13:32;14.64;39.66
52656;SHT85;35474;51.032;6.998;2024-03-08T12:16:02;15.07;38.98
52656;SHT85;35474;51.032;6.998;2024-03-08T12:18:34;14.94;38.03
52656;SHT85;35474;51.032;6.998;2024-03-08T12:23:37;14.42;38.41
52656;SHT85;35474;51.032;6.998;2024-03-08T12:26:15;14.83;38.94
52656;SHT85;35474;51.032;6.998;2024-03-08T12:28:44;14.01;39.47
52656;SHT85;35474;51.032;6.998;2024-03-08T12:31:14;14.87;38.07
52656;SHT85;35474;51.032;6.998;2024-03-08T12:36:15;15.22;37.85
52656;SHT85;35474;51.032;6.998;2024-03-08T12:38:45;13.56;39.36
52656;SHT85;35474;51.032;6.998;2024-03-08T12:41:14;13.70;40.11
52656;SHT85;35474;51.032;6.998;2024-03-08T12:43:43;15.12;37.91
52656;SHT85;35474;51.032;6.998;2024-03-08T12:46:15;15.14;37.48
52656;SHT85;35474;51.032;6.998;2024-03-08T12:48:43;14.48;38.40
52656;SHT85;35474;51.032;6.998;2024-03-08T12:51:13;13.65;39.77
52656;SHT85;35474;51.032;6.998;2024-03-08T12:53:42;13.36;39.90
52656;SHT85;35474;51.032;6.998;2024-03-08T12:56:19;14.04;39.37
52656;SHT85;35474;51.032;6.998;2024-03-08T12:58:55;14.36;39.39
52656;SHT85;35474;51.032;6.998;2024-03-08T13:01:23;13.81;39.31
52656;SHT85;35474;51.032;6.998;2024-03-08T13:03:50;14.93;38.63
52656;SHT85;35474;51.032;6.998;2024-03-08T13:06:17;14.11;38.94
52656;SHT85;35474;51.032;6.998;2024-03-08T13:08:43;14.30;39.46
52656;SHT85;35474;51.032;6.998;2024-03-08T13:11:10;14.79;38.59
52656;SHT85;35474;51.032;6.998;2024-03-08T13:13:43;14.40;38.12
52656;SHT85;35474;51.032;6.998;2024-03-08T13:16:10;14.88;37.53
52656;SHT85;35474;51.032;6.998;2024-03-08T13:18:41;15.07;38.10
52656;SHT85;35474;51.032;6.998;2024-03-08T13:21:11;15.85;36.91
52656;SHT85;35474;51.032;6.998;2024-03-08T13:23:40;15.45;36.25
52656;SHT85;35474;51.032;6.998;2024-03-08T13:26:12;15.11;38.43
52656;SHT85;35474;51.032;6.998;2024-03-08T13:28:42;16.10;36.45
52656;SHT85;35474;51.032;6.998;2024-03-08T13:31:09;15.73;36.78
52656;SHT85;35474;51.032;6.998;2024-03-08T13:33:37;14.70;37.40
52656;SHT85;35474;51.032;6.998;2024-03-08T13:36:05;15.51;37.22
52656;SHT85;35474;51.032;6.998;2024-03-08T13:38:38;15.17;37.53
52656;SHT85;35474;51.032;6.998;2024-03-08T13:41:05;15.62;36.86
52656;SHT85;35474;51.032;6.998;2024-03-08T13:43:32;14.91;37.19
52656;SHT85;35474;51.032;6.998;2024-03-08T13:46:00;13.65;39.89
52656;SHT85;35474;51.032;6.998;2024-03-08T13:48:27;13.57;40.49
52656;SHT85;35474;51.032;6.998;2024-03-08T13:50:54;14.70;39.95
52656;SHT85;35474;51.032;6.998;2024-03-08T13:53:22;15.05;39.43
52656;SHT85;35474;51.032;6.998;2024-03-08T13:55:50;14.36;39.88
52656;SHT85;35474;51.032;6.998;2024-03-08T13:58:16;15.12;39.31
52656;SHT85;35474;51.032;6.998;2024-03-08T14:00:43;15.10;39.76
52656;SHT85;35474;51.032;6.998;2024-03-08T14:03:12;15.41;38.52
52656;SHT85;35474;51.032;6.998;2024-03-08T14:05:41;15.63;37.73
52656;SHT85;35474;51.032;6.998;2024-03-08T14:08:09;15.53;38.44
52656;SHT85;35474;51.032;6.998;2024-03-08T14:10:38;15.24;38.05
52656;SHT85;35474;51.032;6.998;2024-03-08T14:13:04;15.32;39.48
52656;SHT85;35474;51.032;6.998;2024-03-08T14:15:33;15.49;38.44
52656;SHT85;35474;51.032;6.998;2024-03-08T14:18:07;15.45;38.75
52656;SHT85;35474;51.032;6.998;2024-03-08T14:20:34;15.56;38.76
52656;SHT85;35474;51.032;6.998;2024-03-08T14:23:01;15.31;38.74
52656;SHT85;35474;51.032;6.998;2024-03-08T14:25:27;15.04;39.32
52656;SHT85;35474;51.032;6.998;2024-03-08T14:27:56;15.38;39.32
52656;SHT85;35474;51.032;6.998;2024-03-08T14:30:30;15.12;39.06
52656;SHT85;35474;51.032;6.998;2024-03-08T14:33:01;15.14;39.51
52656;SHT85;35474;51.032;6.998;2024-03-08T14:35:29;15.34;39.24
52656;SHT85;35474;51.032;6.998;2024-03-08T14:37:58;15.31;39.25
52656;SHT85;35474;51.032;6.998;2024-03-08T14:40:24;15.31;39.14
52656;SHT85;35474;51.032;6.998;2024-03-08T14:42:52;15.65;38.85
52656;SHT85;35474;51.032;6.998;2024-03-08T14:45:19;14.72;40.05
52656;SHT85;35474;51.032;6.998;2024-03-08T14:47:49;14.77;39.95
52656;SHT85;35474;51.032;6.998;2024-03-08T14:50:17;14.85;39.98
52656;SHT85;35474;51.032;6.998;2024-03-08T14:52:46;14.46;40.19
52656;SHT85;35474;51.032;6.998;2024-03-08T14:55:17;14.48;40.84
52656;SHT85;35474;51.032;6.998;2024-03-08T14:57:48;13.91;41.90
52656;SHT85;35474;51.032;6.998;2024-03-08T15:00:17;14.73;40.38
52656;SHT85;35474;51.032;6.998;2024-03-08T15:03:02;14.56;40.46
52656;SHT85;35474;51.032;6.998;2024-03-08T15:05:32;14.56;40.59
52656;SHT85;35474;51.032;6.998;2024-03-08T15:08:08;14.84;40.08
52656;SHT85;35474;51.032;6.998;2024-03-08T15:10:38;14.66;40.33
52656;SHT85;35474;51.032;6.998;2024-03-08T15:13:07;14.73;40.04
52656;SHT85;35474;51.032;6.998;2024-03-08T15:15:47;13.63;41.73
52656;SHT85;35474;51.032;6.998;2024-03-08T15:18:17;13.81;42.01
52656;SHT85;35474;51.032;6.998;2024-03-08T15:20:44;14.40;41.19
52656;SHT85;35474;51.032;6.998;2024-03-08T15:23:13;14.49;40.51
52656;SHT85;35474;51.032;6.998;2024-03-08T15:25:40;13.85;41.31
52656;SHT85;35474;51.032;6.998;2024-03-08T15:28:08;14.00;41.58
52656;SHT85;35474;51.032;6.998;2024-03-08T15:30:41;14.19;41.22
52656;SHT85;35474;51.032;6.998;2024-03-08T15:33:14;14.62;40.85
52656;SHT85;35474;51.032;6.998;2024-03-08T15:35:46;14.87;40.03
52656;SHT85;35474;51.032;6.998;2024-03-08T15:38:16;14.74;40.25
52656;SHT85;35474;51.032;6.998;2024-03-08T15:40:44;14.48;40.81
52656;SHT85;35474;51.032;6.998;2024-03-08T15:43:11;14.48;40.96
52656;SHT85;35474;51.032;6.998;2024-03-08T15:45:38;14.39;40.44
52656;SHT85;35474;51.032;6.998;2024-03-08T15:48:04;13.67;41.74
52656;SHT85;35474;51.032;6.998;2024-03-08T15:50:32;14.05;41.56
52656;SHT85;35474;51.032;6.998;2024-03-08T15:53:01;14.06;41.33
52656;SHT85;35474;51.032;6.998;2024-03-08T15:55:28;13.57;41.83
52656;SHT85;35474;51.032;6.998;2024-03-08T15:57:56;13.15;42.54
52656;SHT85;35474;51.032;6.998;2024-03-08T16:00:24;13.37;42.52
52656;SHT85;35474;51.032;6.998;2024-03-08T16:03:12;13.95;42.18
52656;SHT85;35474;51.032;6.998;2024-03-08T16:05:40;14.15;41.91
52656;SHT85;35474;51.032;6.998;2024-03-08T16:08:08;14.23;41.89